Time;durP1;ratioP1;P1;durP2;ratioP2;P2;SDS_P1;SDS_P2;PMS_P1;PMS_P2;Temp;Humidity;BMP_temperature;BMP_pressure;BME280_temperature;BME280_humidity;BME280_pressure;Samples;Min_cycle;Max_cycle;Signal;HPM_P1;HPM_P2
2023/05/29 00:01:06;;;;;;;;;;;;;;;;;;5152535;27;20371;-69
2023/05/29 00:03:35;;;;;;;;;;;;;;;;;;5153304;27;19912;-69
2023/05/29 00:09:07;;;;;;;;;;;;;;;;;;5130282;27;20387;-69
2023/05/29 00:12:01;;;;;;;;;;;;;;;;;;5129434;28;19911;-69
2023/05/29 00:24:26;;;;;;;;;;;;;;;;;;5152878;27;19998;-68
2023/05/29 00:30:32;;;;;;;;;;;;;;;;;;5112008;28;19919;-70
2023/05/29 00:33:24;;;;;;;;;;;;;;;;;;5107689;28;19908;-69
2023/05/29 00:40:14;;;;;;;;;;;;;;;;;;5130569;28;19919;-69
2023/05/29 00:44:46;;;;;;;;;;;;;;;;;;5112379;27;20302;-69
2023/05/29 00:47:32;;;;;;;;;;;;;;;;;;5111110;28;19912;-69
2023/05/29 01:04:23;;;;;;;;;;;;;;;;;;5092634;27;19913;-69
2023/05/29 01:10:07;;;;;;;;;;;;;;;;;;5150677;27;20373;-68
2023/05/29 01:12:46;;;;;;;;;;;;;;;;;;5148060;27;19918;-69
2023/05/29 01:21:44;;;;;;;;;;;;;;;;;;5151057;27;19955;-68
2023/05/29 01:40:54;;;;;;;;;;;;;;;;;;5076985;27;20022;-68
2023/05/29 01:43:37;;;;;;;;;;;;;;;;;;5091592;27;19922;-69
2023/05/29 01:46:04;;;;;;;;;;;;;;;;;;5090938;28;20343;-69
2023/05/29 01:51:31;;;;;;;;;;;;;;;;;;5092140;27;19920;-69
2023/05/29 01:54:27;;;;;;;;;;;;;;;;;;5028934;28;19920;-69
2023/05/29 01:56:55;;;;;;;;;;;;;;;;;;5029641;28;19909;-68
2023/05/29 02:00:54;;;;;;;;;;;;;;;;;;5112657;27;19934;-68
2023/05/29 02:03:42;;;;;;;;;;;;;;;;;;5111056;28;19912;-68
2023/05/29 02:09:13;;;;;;;;;;;;;;;;;;5111652;28;19950;-69
2023/05/29 02:22:58;;;;;;;;;;;;;;;;;;5152958;27;19912;-68
2023/05/29 02:25:57;;;;;;;;;;;;;;;;;;5122709;27;19911;-68
2023/05/29 02:28:45;;;;;;;;;;;;;;;;;;5095131;27;19915;-69
2023/05/29 02:31:38;;;;;;;;;;;;;;;;;;5151827;27;19907;-69
2023/05/29 02:39:06;;;;;;;;;;;;;;;;;;5076628;27;19966;-68
2023/05/29 02:49:22;;;;;;;;;;;;;;;;;;5090846;28;19919;-68
2023/05/29 02:52:22;;;;;;;;;;;;;;;;;;5091223;28;19915;-68
2023/05/29 02:55:14;;;;;;;;;;;;;;;;;;5090749;28;20002;-68
2023/05/29 02:58:06;;;;;;;;;;;;;;;;;;5090653;28;19961;-68
2023/05/29 03:05:26;;;;;;;;;;;;;;;;;;5153803;27;19964;-68
2023/05/29 03:08:05;;;;;;;;;;;;;;;;;;5147863;27;20397;-69
2023/05/29 03:15:43;;;;;;;;;;;;;;;;;;5130701;28;20310;-70
2023/05/29 03:20:17;;;;;;;;;;;;;;;;;;5030685;27;20304;-68
2023/05/29 03:34:28;;;;;;;;;;;;;;;;;;5130373;27;19951;-68
2023/05/29 03:40:02;;;;;;;;;;;;;;;;;;5129808;28;20025;-68
2023/05/29 03:48:23;;;;;;;;;;;;;;;;;;5131266;27;19912;-69
2023/05/29 03:50:52;;;;;;;;;;;;;;;;;;5112626;28;20245;-70
2023/05/29 03:53:28;;;;;;;;;;;;;;;;;;5126983;28;20269;-70
2023/05/29 04:01:12;;;;;;;;;;;;;;;;;;5151147;27;20359;-68
2023/05/29 04:10:44;;;;;;;;;;;;;;;;;;5130418;27;20383;-69
2023/05/29 04:13:30;;;;;;;;;;;;;;;;;;5070615;28;20390;-68
2023/05/29 04:16:03;;;;;;;;;;;;;;;;;;5130404;28;19949;-70
2023/05/29 04:18:55;;;;;;;;;;;;;;;;;;5129707;28;19907;-70
2023/05/29 04:21:42;;;;;;;;;;;;;;;;;;5088713;28;19915;-69
2023/05/29 04:28:58;;;;;;;;;;;;;;;;;;5152594;27;20002;-68
2023/05/29 04:36:23;;;;;;;;;;;;;;;;;;5032315;27;19922;-68
2023/05/29 04:46:03;;;;;;;;;;;;;;;;;;5152854;27;19915;-70
2023/05/29 04:52:20;;;;;;;;;;;;;;;;;;5099329;27;20380;-68
2023/05/29 04:55:11;;;;;;;;;;;;;;;;;;5090338;28;20296;-69
2023/05/29 05:00:32;;;;;;;;;;;;;;;;;;5090676;28;19931;-69
2023/05/29 05:15:13;;;;;;;;;;;;;;;;;;5100060;27;19944;-68
2023/05/29 05:23:32;;;;;;;;;;;;;;;;;;5089620;28;19947;-68
2023/05/29 05:26:20;;;;;;;;;;;;;;;;;;5089597;28;19915;-67
2023/05/29 05:38:33;;;;;;;;;;;;;;;;;;5066577;28;19952;-65
2023/05/29 05:44:38;;;;;;;;;;;;;;;;;;5154083;27;19914;-65
2023/05/29 06:01:51;;;;;;;;;;;;;;;;;;5064398;28;19951;-66
2023/05/29 06:04:44;;;;;;;;;;;;;;;;;;5054849;28;19917;-66
2023/05/29 06:10:24;;;;;;;;;;;;;;;;;;5066895;28;19923;-65
2023/05/29 06:15:32;;;;;;;;;;;;;;;;;;5097048;27;20007;-64
2023/05/29 06:18:06;;;;;;;;;;;;;;;;;;5061412;28;19920;-65
2023/05/29 06:29:06;;;;;;;;;;;;;;;;;;5130314;27;19915;-64
2023/05/29 06:31:51;;;;;;;;;;;;;;;;;;5100084;28;19912;-64
2023/05/29 06:37:25;;;;;;;;;;;;;;;;;;5104372;28;19946;-63
2023/05/29 06:53:20;;;;;;;;;;;;;;;;;;5093984;28;19950;-64
2023/05/29 06:55:54;;;;;;;;;;;;;;;;;;5116651;28;19955;-64
2023/05/29 07:03:00;;;;;;;;;;;;;;;;;;5118599;27;19916;-65
2023/05/29 07:05:36;;;;;;;;;;;;;;;;;;5087478;27;19925;-65
2023/05/29 07:09:25;;;;;;;;;;;;;;;;;;5087401;27;20304;-65
2023/05/29 07:12:09;;;;;;;;;;;;;;;;;;5089004;27;19916;-65
2023/05/29 07:14:35;;;;;;;;;;;;;;;;;;5088467;28;19912;-65
2023/05/29 07:17:01;;;;;;;;;;;;;;;;;;5077612;28;19982;-65
2023/05/29 07:19:28;;;;;;;;;;;;;;;;;;5078480;28;19923;-65
2023/05/29 07:22:24;;;;;;;;;;;;;;;;;;5087083;28;19998;-65
2023/05/29 07:24:50;;;;;;;;;;;;;;;;;;5089155;28;19919;-64
2023/05/29 07:27:16;;;;;;;;;;;;;;;;;;5071939;28;19908;-64
2023/05/29 07:29:42;;;;;;;;;;;;;;;;;;5067581;28;20226;-64
2023/05/29 07:34:36;;;;;;;;;;;;;;;;;;5088730;27;19922;-65
2023/05/29 07:41:40;;;;;;;;;;;;;;;;;;5108994;27;19916;-64
2023/05/29 07:47:49;;;;;;;;;;;;;;;;;;5089953;27;19920;-64
2023/05/29 07:50:15;;;;;;;;;;;;;;;;;;5087980;28;19919;-64
2023/05/29 07:54:24;;;;;;;;;;;;;;;;;;5058862;28;19928;-64
2023/05/29 07:56:50;;;;;;;;;;;;;;;;;;5048047;28;20035;-65
2023/05/29 08:00:20;;;;;;;;;;;;;;;;;;5062487;27;19917;-64
2023/05/29 08:03:11;;;;;;;;;;;;;;;;;;5126806;27;20299;-65
2023/05/29 08:08:03;;;;;;;;;;;;;;;;;;5089741;27;19920;-65
2023/05/29 08:10:29;;;;;;;;;;;;;;;;;;5066645;28;19913;-65
2023/05/29 08:12:55;;;;;;;;;;;;;;;;;;5067395;28;19908;-65
2023/05/29 08:15:23;;;;;;;;;;;;;;;;;;5068335;28;19959;-66
2023/05/29 08:17:49;;;;;;;;;;;;;;;;;;5070589;28;19924;-65
2023/05/29 08:20:16;;;;;;;;;;;;;;;;;;5066653;28;19910;-66
2023/05/29 08:24:01;;;;;;;;;;;;;;;;;;5109909;27;19912;-65
2023/05/29 08:26:28;;;;;;;;;;;;;;;;;;5101000;28;20633;-65
2023/05/29 08:28:54;;;;;;;;;;;;;;;;;;5101549;28;19912;-65
2023/05/29 08:33:53;;;;;;;;;;;;;;;;;;5086417;27;19927;-64
2023/05/29 08:37:45;;;;;;;;;;;;;;;;;;5150369;27;19912;-64
2023/05/29 08:40:14;;;;;;;;;;;;;;;;;;5130574;27;20359;-64
2023/05/29 08:42:40;;;;;;;;;;;;;;;;;;5119628;28;19978;-64
2023/05/29 08:47:16;;;;;;;;;;;;;;;;;;5079706;27;19921;-65
2023/05/29 08:51:38;;;;;;;;;;;;;;;;;;5124488;27;19926;-65
2023/05/29 08:54:04;;;;;;;;;;;;;;;;;;5120654;28;19953;-66
2023/05/29 08:56:30;;;;;;;;;;;;;;;;;;5103723;28;19958;-65
2023/05/29 08:58:56;;;;;;;;;;;;;;;;;;5114439;28;19938;-65
2023/05/29 09:01:22;;;;;;;;;;;;;;;;;;5104012;28;20002;-66
2023/05/29 09:03:48;;;;;;;;;;;;;;;;;;5110134;28;19922;-65
2023/05/29 09:06:14;;;;;;;;;;;;;;;;;;5124071;28;19908;-66
2023/05/29 09:08:40;;;;;;;;;;;;;;;;;;5122817;28;19955;-66
2023/05/29 09:13:20;;;;;;;;;;;;;;;;;;5086904;27;19923;-64
2023/05/29 09:18:37;;;;;;;;;;;;;;;;;;5150833;27;19915;-66
2023/05/29 09:22:40;;;;;;;;;;;;;;;;;;5109261;27;19924;-65
2023/05/29 09:25:06;;;;;;;;;;;;;;;;;;5109438;28;19918;-66
2023/05/29 09:29:45;;;;;;;;;;;;;;;;;;5149960;27;19926;-66
2023/05/29 09:32:11;;;;;;;;;;;;;;;;;;5127832;27;20005;-65
2023/05/29 09:36:29;;;;;;;;;;;;;;;;;;5158956;27;20347;-64
2023/05/29 09:38:55;;;;;;;;;;;;;;;;;;5150777;27;20006;-65
2023/05/29 09:45:18;;;;;;;;;;;;;;;;;;5105706;27;20380;-66
2023/05/29 09:48:16;;;;;;;;;;;;;;;;;;5149966;27;19912;-66
2023/05/29 09:50:49;;;;;;;;;;;;;;;;;;5140933;27;20636;-65
2023/05/29 09:53:16;;;;;;;;;;;;;;;;;;5129350;28;19911;-66
2023/05/29 09:55:41;;;;;;;;;;;;;;;;;;5129091;27;19907;-65
2023/05/29 09:58:08;;;;;;;;;;;;;;;;;;5108907;28;20395;-65
2023/05/29 10:00:34;;;;;;;;;;;;;;;;;;5133518;27;19943;-66
2023/05/29 10:03:00;;;;;;;;;;;;;;;;;;5116595;28;19947;-65
2023/05/29 10:05:26;;;;;;;;;;;;;;;;;;5125753;28;20477;-65
2023/05/29 10:07:52;;;;;;;;;;;;;;;;;;5126239;28;20410;-63
2023/05/29 10:10:23;;;;;;;;;;;;;;;;;;5128233;28;19914;-65
2023/05/29 10:18:25;;;;;;;;;;;;;;;;;;4963773;28;19936;-64
2023/05/29 10:22:16;;;;;;;;;;;;;;;;;;5087623;27;20283;-66
2023/05/29 10:24:42;;;;;;;;;;;;;;;;;;5090998;28;19917;-65
2023/05/29 10:27:08;;;;;;;;;;;;;;;;;;5087287;28;19924;-65
2023/05/29 10:32:41;;;;;;;;;;;;;;;;;;5129433;27;19922;-65
2023/05/29 10:35:08;;;;;;;;;;;;;;;;;;5128261;28;20379;-65
2023/05/29 10:38:19;;;;;;;;;;;;;;;;;;5089351;28;19916;-65
2023/05/29 10:43:59;;;;;;;;;;;;;;;;;;5089337;28;20108;-64
2023/05/29 10:46:25;;;;;;;;;;;;;;;;;;5100093;28;20315;-66
2023/05/29 10:48:51;;;;;;;;;;;;;;;;;;5089282;28;19908;-65
2023/05/29 10:51:18;;;;;;;;;;;;;;;;;;5088709;28;20016;-65
2023/05/29 10:53:45;;;;;;;;;;;;;;;;;;5089277;28;20297;-64
2023/05/29 10:56:12;;;;;;;;;;;;;;;;;;5088529;28;19913;-64
2023/05/29 10:58:38;;;;;;;;;;;;;;;;;;5088232;28;20384;-64
2023/05/29 11:01:04;;;;;;;;;;;;;;;;;;5088717;28;19916;-65
2023/05/29 11:03:30;;;;;;;;;;;;;;;;;;5086660;28;20295;-65
2023/05/29 11:05:56;;;;;;;;;;;;;;;;;;5085836;28;20036;-64
2023/05/29 11:08:22;;;;;;;;;;;;;;;;;;5087380;28;19912;-68
2023/05/29 11:13:55;;;;;;;;;;;;;;;;;;5089902;27;19927;-64
2023/05/29 11:16:21;;;;;;;;;;;;;;;;;;5089199;28;19912;-64
2023/05/29 11:18:47;;;;;;;;;;;;;;;;;;5088285;28;19918;-65
2023/05/29 11:21:13;;;;;;;;;;;;;;;;;;5086387;28;20339;-65
2023/05/29 11:23:39;;;;;;;;;;;;;;;;;;5084923;28;19919;-66
2023/05/29 11:27:24;;;;;;;;;;;;;;;;;;5088353;27;20411;-65
2023/05/29 11:29:53;;;;;;;;;;;;;;;;;;5094948;28;19912;-64
2023/05/29 11:32:19;;;;;;;;;;;;;;;;;;5086931;28;20274;-64
2023/05/29 11:34:46;;;;;;;;;;;;;;;;;;5087418;28;19908;-64
2023/05/29 11:38:32;;;;;;;;;;;;;;;;;;5066466;27;19927;-63
2023/05/29 11:40:58;;;;;;;;;;;;;;;;;;5067485;28;19913;-64
2023/05/29 11:44:22;;;;;;;;;;;;;;;;;;5096582;27;19926;-64
2023/05/29 11:46:48;;;;;;;;;;;;;;;;;;5092627;28;19912;-64
2023/05/29 11:50:34;;;;;;;;;;;;;;;;;;5089686;27;19913;-64
2023/05/29 11:53:00;;;;;;;;;;;;;;;;;;5090203;28;19948;-64
2023/05/29 11:56:36;;;;;;;;;;;;;;;;;;5087572;27;19926;-66
2023/05/29 12:03:15;;;;;;;;;;;;;;;;;;5150597;27;19911;-65
2023/05/29 12:05:41;;;;;;;;;;;;;;;;;;5140097;27;20278;-64
2023/05/29 12:08:07;;;;;;;;;;;;;;;;;;5130607;28;19953;-65
2023/05/29 12:10:33;;;;;;;;;;;;;;;;;;5130044;28;20264;-65
2023/05/29 12:12:59;;;;;;;;;;;;;;;;;;5140436;27;19932;-66
2023/05/29 12:15:25;;;;;;;;;;;;;;;;;;5114426;28;19912;-65
2023/05/29 12:17:51;;;;;;;;;;;;;;;;;;5130610;28;19908;-65
2023/05/29 12:20:17;;;;;;;;;;;;;;;;;;5134320;27;19915;-65
2023/05/29 12:22:43;;;;;;;;;;;;;;;;;;5129365;28;20248;-66
2023/05/29 12:25:09;;;;;;;;;;;;;;;;;;5129163;27;20283;-66
2023/05/29 12:27:41;;;;;;;;;;;;;;;;;;5127931;27;19953;-66
2023/05/29 12:30:07;;;;;;;;;;;;;;;;;;5140964;27;19911;-66
2023/05/29 12:32:32;;;;;;;;;;;;;;;;;;5128492;28;19922;-65
2023/05/29 12:34:58;;;;;;;;;;;;;;;;;;5127589;28;19907;-65
2023/05/29 12:38:08;;;;;;;;;;;;;;;;;;5089735;27;19916;-63
2023/05/29 12:43:18;;;;;;;;;;;;;;;;;;5131123;27;20294;-64
2023/05/29 12:45:44;;;;;;;;;;;;;;;;;;5129789;28;20019;-65
2023/05/29 12:48:58;;;;;;;;;;;;;;;;;;5110911;27;19926;-65
2023/05/29 12:51:24;;;;;;;;;;;;;;;;;;5090366;28;20351;-66
2023/05/29 12:53:50;;;;;;;;;;;;;;;;;;5105462;28;19965;-68
2023/05/29 12:56:16;;;;;;;;;;;;;;;;;;5108799;28;20326;-69
2023/05/29 12:58:42;;;;;;;;;;;;;;;;;;5109042;28;20138;-68
2023/05/29 13:01:08;;;;;;;;;;;;;;;;;;5109115;28;19912;-67
2023/05/29 13:03:34;;;;;;;;;;;;;;;;;;5109476;28;19908;-68
2023/05/29 13:06:54;;;;;;;;;;;;;;;;;;5089394;28;19923;-68
2023/05/29 13:09:20;;;;;;;;;;;;;;;;;;5089948;28;19912;-68
2023/05/29 13:11:46;;;;;;;;;;;;;;;;;;5089809;28;19912;-68
2023/05/29 13:14:12;;;;;;;;;;;;;;;;;;5089446;28;19912;-68
2023/05/29 13:16:38;;;;;;;;;;;;;;;;;;5088758;28;19909;-69
2023/05/29 13:19:05;;;;;;;;;;;;;;;;;;5088599;28;19942;-68
2023/05/29 13:22:31;;;;;;;;;;;;;;;;;;5090004;27;19916;-68
2023/05/29 13:24:57;;;;;;;;;;;;;;;;;;5090683;28;19970;-68
2023/05/29 13:27:23;;;;;;;;;;;;;;;;;;5091402;28;19962;-68
2023/05/29 13:29:49;;;;;;;;;;;;;;;;;;5090783;28;20386;-68
2023/05/29 13:32:15;;;;;;;;;;;;;;;;;;5091230;28;19908;-68
2023/05/29 13:34:41;;;;;;;;;;;;;;;;;;5091778;28;20360;-68
2023/05/29 13:37:07;;;;;;;;;;;;;;;;;;5090742;28;20407;-68
2023/05/29 13:39:33;;;;;;;;;;;;;;;;;;5091308;28;20319;-68
2023/05/29 13:44:13;;;;;;;;;;;;;;;;;;5091180;27;20025;-68
2023/05/29 13:46:39;;;;;;;;;;;;;;;;;;5091178;28;19999;-68
2023/05/29 13:49:07;;;;;;;;;;;;;;;;;;5090513;28;20004;-68
2023/05/29 13:51:33;;;;;;;;;;;;;;;;;;5090681;28;19981;-68
2023/05/29 13:53:59;;;;;;;;;;;;;;;;;;5091044;28;20376;-68
2023/05/29 13:56:26;;;;;;;;;;;;;;;;;;5091222;28;20283;-68
2023/05/29 13:58:52;;;;;;;;;;;;;;;;;;5090696;28;19908;-68
2023/05/29 14:01:21;;;;;;;;;;;;;;;;;;5091060;28;19909;-68
2023/05/29 14:03:47;;;;;;;;;;;;;;;;;;5090318;28;19979;-69
2023/05/29 14:06:13;;;;;;;;;;;;;;;;;;5091248;28;20372;-68
2023/05/29 14:08:39;;;;;;;;;;;;;;;;;;5089583;28;19912;-68
2023/05/29 14:11:05;;;;;;;;;;;;;;;;;;5090553;28;19908;-68
2023/05/29 14:13:31;;;;;;;;;;;;;;;;;;5090839;28;20414;-68
2023/05/29 14:15:57;;;;;;;;;;;;;;;;;;5090829;28;19912;-68
2023/05/29 14:18:23;;;;;;;;;;;;;;;;;;5090274;28;19912;-68
2023/05/29 14:20:49;;;;;;;;;;;;;;;;;;5090670;28;20435;-68
2023/05/29 14:23:15;;;;;;;;;;;;;;;;;;5090992;28;19920;-68
2023/05/29 14:25:41;;;;;;;;;;;;;;;;;;5090290;28;20395;-68
2023/05/29 14:28:07;;;;;;;;;;;;;;;;;;5090563;28;19912;-68
2023/05/29 14:30:33;;;;;;;;;;;;;;;;;;5090587;28;19920;-68
2023/05/29 14:32:59;;;;;;;;;;;;;;;;;;5090052;28;19912;-68
2023/05/29 14:35:25;;;;;;;;;;;;;;;;;;5090451;28;19974;-68
2023/05/29 14:37:51;;;;;;;;;;;;;;;;;;5090417;28;19984;-68
2023/05/29 14:40:17;;;;;;;;;;;;;;;;;;5089919;28;19909;-68
2023/05/29 14:42:43;;;;;;;;;;;;;;;;;;5098188;28;20011;-68
2023/05/29 14:45:09;;;;;;;;;;;;;;;;;;5110569;28;19908;-68
2023/05/29 14:47:35;;;;;;;;;;;;;;;;;;5110227;28;19996;-68
2023/05/29 14:50:00;;;;;;;;;;;;;;;;;;5110470;28;19907;-68
2023/05/29 14:52:26;;;;;;;;;;;;;;;;;;5110460;28;19961;-68
2023/05/29 14:54:52;;;;;;;;;;;;;;;;;;5100179;28;19919;-68
2023/05/29 14:57:18;;;;;;;;;;;;;;;;;;5096675;28;19995;-68
2023/05/29 14:59:45;;;;;;;;;;;;;;;;;;5096707;28;20364;-68
2023/05/29 15:02:11;;;;;;;;;;;;;;;;;;5096117;28;19919;-68
2023/05/29 15:04:37;;;;;;;;;;;;;;;;;;5096611;28;19912;-69
2023/05/29 15:07:04;;;;;;;;;;;;;;;;;;5096272;28;19923;-68
2023/05/29 15:09:30;;;;;;;;;;;;;;;;;;5096497;28;19944;-68
2023/05/29 15:11:56;;;;;;;;;;;;;;;;;;5096474;28;19914;-68
2023/05/29 15:14:22;;;;;;;;;;;;;;;;;;5096018;28;20381;-68
2023/05/29 15:16:48;;;;;;;;;;;;;;;;;;5096622;28;20249;-68
2023/05/29 15:19:13;;;;;;;;;;;;;;;;;;5096298;28;19908;-68
2023/05/29 15:21:39;;;;;;;;;;;;;;;;;;5077677;28;19908;-68
2023/05/29 15:24:05;;;;;;;;;;;;;;;;;;5096123;28;19916;-68
2023/05/29 15:26:31;;;;;;;;;;;;;;;;;;5096161;28;20315;-68
2023/05/29 15:28:57;;;;;;;;;;;;;;;;;;5095795;28;19921;-68
2023/05/29 15:31:24;;;;;;;;;;;;;;;;;;5096032;28;19912;-68
2023/05/29 15:33:50;;;;;;;;;;;;;;;;;;5080633;28;19935;-68
2023/05/29 15:36:18;;;;;;;;;;;;;;;;;;5073770;28;19909;-68
2023/05/29 15:38:44;;;;;;;;;;;;;;;;;;5055742;28;20015;-67
2023/05/29 15:41:10;;;;;;;;;;;;;;;;;;5073583;28;20340;-68
2023/05/29 15:43:36;;;;;;;;;;;;;;;;;;5073147;28;19920;-68
2023/05/29 15:46:03;;;;;;;;;;;;;;;;;;5073873;28;19909;-68
2023/05/29 15:48:29;;;;;;;;;;;;;;;;;;5074784;28;19961;-68
2023/05/29 15:50:55;;;;;;;;;;;;;;;;;;5074859;28;19912;-67
2023/05/29 15:53:21;;;;;;;;;;;;;;;;;;5073733;28;19908;-68
2023/05/29 15:58:11;;;;;;;;;;;;;;;;;;5089212;27;19919;-67
2023/05/29 16:02:21;;;;;;;;;;;;;;;;;;5090282;27;19916;-68
2023/05/29 16:11:32;;;;;;;;;;;;;;;;;;5152636;27;20030;-67
2023/05/29 16:13:58;;;;;;;;;;;;;;;;;;5152957;27;20383;-67
2023/05/29 16:16:24;;;;;;;;;;;;;;;;;;5152791;27;19960;-68
2023/05/29 16:18:50;;;;;;;;;;;;;;;;;;5152415;27;19907;-68
2023/05/29 16:21:17;;;;;;;;;;;;;;;;;;5153166;27;20014;-68
2023/05/29 16:23:42;;;;;;;;;;;;;;;;;;5152691;27;20278;-69
2023/05/29 16:26:08;;;;;;;;;;;;;;;;;;5152491;27;19907;-69
2023/05/29 16:28:34;;;;;;;;;;;;;;;;;;5152600;27;19907;-67
2023/05/29 16:31:00;;;;;;;;;;;;;;;;;;5152635;27;20124;-68
2023/05/29 16:35:46;;;;;;;;;;;;;;;;;;5091733;27;19916;-68
2023/05/29 16:38:12;;;;;;;;;;;;;;;;;;5091625;28;19913;-68
2023/05/29 16:40:38;;;;;;;;;;;;;;;;;;5090933;28;20279;-69
2023/05/29 16:45:25;;;;;;;;;;;;;;;;;;5091473;27;19916;-68
2023/05/29 16:47:51;;;;;;;;;;;;;;;;;;5091365;28;19912;-69
2023/05/29 16:52:35;;;;;;;;;;;;;;;;;;5091267;28;20304;-68
2023/05/29 16:57:52;;;;;;;;;;;;;;;;;;5091581;27;19922;-67
2023/05/29 17:00:18;;;;;;;;;;;;;;;;;;5090940;28;19912;-68
2023/05/29 17:02:44;;;;;;;;;;;;;;;;;;5091267;28;19961;-67
2023/05/29 17:05:10;;;;;;;;;;;;;;;;;;5091267;28;19913;-68
2023/05/29 17:07:36;;;;;;;;;;;;;;;;;;5089504;28;20414;-68
2023/05/29 17:10:02;;;;;;;;;;;;;;;;;;5089830;28;20439;-69
2023/05/29 17:14:56;;;;;;;;;;;;;;;;;;5091299;27;19916;-68
2023/05/29 17:17:22;;;;;;;;;;;;;;;;;;5091365;28;20030;-68
2023/05/29 17:19:47;;;;;;;;;;;;;;;;;;5091240;28;19909;-68
2023/05/29 17:22:13;;;;;;;;;;;;;;;;;;5091014;28;20364;-68
2023/05/29 17:24:39;;;;;;;;;;;;;;;;;;5091393;28;19915;-70
2023/05/29 17:27:05;;;;;;;;;;;;;;;;;;5091239;28;20011;-68
2023/05/29 17:30:26;;;;;;;;;;;;;;;;;;5091808;28;19916;-69
2023/05/29 17:32:52;;;;;;;;;;;;;;;;;;5091310;28;19913;-69
2023/05/29 17:35:18;;;;;;;;;;;;;;;;;;5090863;28;19969;-68
2023/05/29 17:37:44;;;;;;;;;;;;;;;;;;5091240;28;19996;-68
2023/05/29 17:45:04;;;;;;;;;;;;;;;;;;5091707;27;19916;-67
2023/05/29 17:47:30;;;;;;;;;;;;;;;;;;5091306;28;19916;-69
2023/05/29 17:51:05;;;;;;;;;;;;;;;;;;5091539;27;20295;-68
2023/05/29 17:53:31;;;;;;;;;;;;;;;;;;5091384;28;19912;-70
2023/05/29 17:55:57;;;;;;;;;;;;;;;;;;5090824;28;19908;-68
2023/05/29 17:58:23;;;;;;;;;;;;;;;;;;5091256;28;20000;-68
2023/05/29 18:02:02;;;;;;;;;;;;;;;;;;5112348;27;20299;-69
2023/05/29 18:04:58;;;;;;;;;;;;;;;;;;5091087;27;19918;-70
2023/05/29 18:08:01;;;;;;;;;;;;;;;;;;5153201;27;19921;-69
2023/05/29 18:10:28;;;;;;;;;;;;;;;;;;5152486;27;19911;-67
2023/05/29 18:12:54;;;;;;;;;;;;;;;;;;5152789;27;19914;-68
2023/05/29 18:16:52;;;;;;;;;;;;;;;;;;5090434;27;19912;-68
2023/05/29 18:19:18;;;;;;;;;;;;;;;;;;5091311;28;19956;-70
2023/05/29 18:23:37;;;;;;;;;;;;;;;;;;5091461;27;19923;-68
2023/05/29 18:26:03;;;;;;;;;;;;;;;;;;5090997;28;19991;-68
2023/05/29 18:28:30;;;;;;;;;;;;;;;;;;5091238;28;19954;-68
2023/05/29 18:30:56;;;;;;;;;;;;;;;;;;5090859;28;19909;-68
2023/05/29 18:33:36;;;;;;;;;;;;;;;;;;5091694;27;19916;-69
2023/05/29 18:43:02;;;;;;;;;;;;;;;;;;5091432;27;19912;-69
2023/05/29 18:46:12;;;;;;;;;;;;;;;;;;5091131;27;19918;-68
2023/05/29 18:54:49;;;;;;;;;;;;;;;;;;5091762;27;19923;-68
2023/05/29 18:57:15;;;;;;;;;;;;;;;;;;5091376;28;19912;-67
2023/05/29 18:59:40;;;;;;;;;;;;;;;;;;5091139;28;19962;-67
2023/05/29 19:02:06;;;;;;;;;;;;;;;;;;5091368;28;19944;-67
2023/05/29 19:05:51;;;;;;;;;;;;;;;;;;5153101;27;19922;-69
2023/05/29 19:08:42;;;;;;;;;;;;;;;;;;5092213;27;19916;-68
2023/05/29 19:13:15;;;;;;;;;;;;;;;;;;5091288;28;19916;-68
2023/05/29 19:15:41;;;;;;;;;;;;;;;;;;5091350;28;20010;-69
2023/05/29 19:18:07;;;;;;;;;;;;;;;;;;5091273;28;19909;-69
2023/05/29 19:22:32;;;;;;;;;;;;;;;;;;5091340;27;19917;-69
2023/05/29 19:29:30;;;;;;;;;;;;;;;;;;5090895;27;19934;-69
2023/05/29 19:35:36;;;;;;;;;;;;;;;;;;5150458;27;19912;-69
2023/05/29 19:38:02;;;;;;;;;;;;;;;;;;5132245;27;20422;-70
2023/05/29 19:40:28;;;;;;;;;;;;;;;;;;5150785;27;20014;-68
2023/05/29 19:42:54;;;;;;;;;;;;;;;;;;5152415;27;19911;-69
2023/05/29 19:45:21;;;;;;;;;;;;;;;;;;5152762;27;19914;-69
2023/05/29 19:47:47;;;;;;;;;;;;;;;;;;5152730;27;19907;-70
2023/05/29 19:50:13;;;;;;;;;;;;;;;;;;5152306;27;19929;-69
2023/05/29 19:54:45;;;;;;;;;;;;;;;;;;5091738;27;19923;-69
2023/05/29 19:59:30;;;;;;;;;;;;;;;;;;5092172;27;19916;-68
2023/05/29 20:01:57;;;;;;;;;;;;;;;;;;5090063;28;20368;-69
2023/05/29 20:04:23;;;;;;;;;;;;;;;;;;5090889;28;19962;-69
2023/05/29 20:06:49;;;;;;;;;;;;;;;;;;5091576;28;20380;-68
2023/05/29 20:09:16;;;;;;;;;;;;;;;;;;5089832;28;19913;-69
2023/05/29 20:11:42;;;;;;;;;;;;;;;;;;5090763;28;19914;-68
2023/05/29 20:17:30;;;;;;;;;;;;;;;;;;5152788;27;19938;-67
2023/05/29 20:21:35;;;;;;;;;;;;;;;;;;5091961;27;19919;-68
2023/05/29 20:24:42;;;;;;;;;;;;;;;;;;5111707;27;20291;-67
2023/05/29 20:27:07;;;;;;;;;;;;;;;;;;5110451;28;19919;-67
2023/05/29 20:29:33;;;;;;;;;;;;;;;;;;5111637;28;19908;-67
2023/05/29 20:37:53;;;;;;;;;;;;;;;;;;5091060;28;19916;-67
2023/05/29 20:40:20;;;;;;;;;;;;;;;;;;5091556;28;20011;-69
2023/05/29 20:42:46;;;;;;;;;;;;;;;;;;5091306;28;20046;-68
2023/05/29 20:45:12;;;;;;;;;;;;;;;;;;5091314;28;19959;-67
2023/05/29 20:47:38;;;;;;;;;;;;;;;;;;5091144;28;19909;-67
2023/05/29 20:52:34;;;;;;;;;;;;;;;;;;5152633;27;19911;-68
2023/05/29 20:55:00;;;;;;;;;;;;;;;;;;5152949;27;20402;-68
2023/05/29 20:59:12;;;;;;;;;;;;;;;;;;5090961;28;19922;-67
2023/05/29 21:01:38;;;;;;;;;;;;;;;;;;5090025;28;19913;-67
2023/05/29 21:07:19;;;;;;;;;;;;;;;;;;5091173;27;19916;-69
2023/05/29 21:11:23;;;;;;;;;;;;;;;;;;5153540;27;20014;-68
2023/05/29 21:13:49;;;;;;;;;;;;;;;;;;5152536;27;19911;-68
2023/05/29 21:17:59;;;;;;;;;;;;;;;;;;5092291;27;19922;-67
2023/05/29 21:22:47;;;;;;;;;;;;;;;;;;5091677;27;19923;-68
2023/05/29 21:25:14;;;;;;;;;;;;;;;;;;5091388;28;20003;-68
2023/05/29 21:28:59;;;;;;;;;;;;;;;;;;5091009;27;19916;-68
2023/05/29 21:32:18;;;;;;;;;;;;;;;;;;5091506;28;20273;-68
2023/05/29 21:37:06;;;;;;;;;;;;;;;;;;5152989;27;19919;-68
2023/05/29 21:43:43;;;;;;;;;;;;;;;;;;5091634;27;19919;-67
2023/05/29 21:47:44;;;;;;;;;;;;;;;;;;5153524;27;20389;-68
2023/05/29 21:50:10;;;;;;;;;;;;;;;;;;5152532;27;19999;-68
2023/05/29 21:55:03;;;;;;;;;;;;;;;;;;5091536;27;19916;-68
2023/05/29 21:57:28;;;;;;;;;;;;;;;;;;5091392;28;20444;-69
2023/05/29 21:59:54;;;;;;;;;;;;;;;;;;5091343;28;19909;-68
2023/05/29 22:02:21;;;;;;;;;;;;;;;;;;5089636;28;19908;-68
2023/05/29 22:04:47;;;;;;;;;;;;;;;;;;5091371;28;19908;-68
2023/05/29 22:07:13;;;;;;;;;;;;;;;;;;5091213;28;19954;-68
2023/05/29 22:09:39;;;;;;;;;;;;;;;;;;5090652;28;19944;-68
2023/05/29 22:12:05;;;;;;;;;;;;;;;;;;5091665;28;20352;-68
2023/05/29 22:14:32;;;;;;;;;;;;;;;;;;5090984;28;19955;-69
2023/05/29 22:16:58;;;;;;;;;;;;;;;;;;5090646;28;19923;-66
2023/05/29 22:19:24;;;;;;;;;;;;;;;;;;5090934;28;19912;-69
2023/05/29 22:21:50;;;;;;;;;;;;;;;;;;5090941;28;19918;-69
2023/05/29 22:25:50;;;;;;;;;;;;;;;;;;5091694;27;19916;-68
2023/05/29 22:30:10;;;;;;;;;;;;;;;;;;5111489;27;19912;-68
2023/05/29 22:33:56;;;;;;;;;;;;;;;;;;5091712;27;19916;-68
2023/05/29 22:37:38;;;;;;;;;;;;;;;;;;5091146;27;19919;-68
2023/05/29 22:42:41;;;;;;;;;;;;;;;;;;5091994;28;20307;-68
2023/05/29 22:46:51;;;;;;;;;;;;;;;;;;5091675;27;19916;-68
2023/05/29 22:50:29;;;;;;;;;;;;;;;;;;5091724;27;19938;-69
2023/05/29 22:52:56;;;;;;;;;;;;;;;;;;5091160;28;20346;-69
2023/05/29 22:58:43;;;;;;;;;;;;;;;;;;5091461;27;19923;-68
2023/05/29 23:01:09;;;;;;;;;;;;;;;;;;5091439;28;20010;-67
2023/05/29 23:03:35;;;;;;;;;;;;;;;;;;5091599;28;19954;-68
2023/05/29 23:06:02;;;;;;;;;;;;;;;;;;5091023;28;19912;-68
2023/05/29 23:10:43;;;;;;;;;;;;;;;;;;5091810;28;19916;-68
2023/05/29 23:13:28;;;;;;;;;;;;;;;;;;5091421;28;19916;-68
2023/05/29 23:19:41;;;;;;;;;;;;;;;;;;5091450;27;19918;-67
2023/05/29 23:27:12;;;;;;;;;;;;;;;;;;5091561;27;19923;-68
2023/05/29 23:29:38;;;;;;;;;;;;;;;;;;5091421;28;20008;-67
2023/05/29 23:36:55;;;;;;;;;;;;;;;;;;5092065;28;19917;-70
2023/05/29 23:39:41;;;;;;;;;;;;;;;;;;5071841;28;19923;-68
2023/05/29 23:42:07;;;;;;;;;;;;;;;;;;5070843;28;19951;-68
2023/05/29 23:45:25;;;;;;;;;;;;;;;;;;5092331;28;19923;-67
2023/05/29 23:50:29;;;;;;;;;;;;;;;;;;5091572;27;19916;-67
